Time;durP1;ratioP1;P1;durP2;ratioP2;P2;SDS_P1;SDS_P2;PMS_P1;PMS_P2;Temp;Humidity;BMP_temperature;BMP_pressure;BME280_temperature;BME280_humidity;BME280_pressure;Samples;Min_cycle;Max_cycle;Signal;HPM_P1;HPM_P2
2021/12/12 00:00:14;;;;;;;53.85;27.98;;;3.80;99.90;;;;;;6202691;23;20015;-83
2021/12/12 00:34:40;;;;;;;46.33;26.33;;;4.00;99.90;;;;;;6204328;23;20024;-81
2021/12/12 00:37:08;;;;;;;53.97;26.95;;;4.00;99.90;;;;;;6207826;23;20017;-81
2021/12/12 00:39:37;;;;;;;55.05;27.33;;;4.00;99.90;;;;;;6208753;23;20066;-81
2021/12/12 00:42:25;;;;;;;57.20;27.15;;;4.00;99.90;;;;;;6207143;23;20048;-81
2021/12/12 00:44:58;;;;;;;55.92;27.33;;;4.00;99.90;;;;;;6202948;23;20047;-81
2021/12/12 00:47:25;;;;;;;56.70;26.70;;;4.10;99.90;;;;;;6201439;23;20071;-80
2021/12/12 00:49:52;;;;;;;53.63;26.90;;;4.00;99.90;;;;;;6178940;23;20020;-80
2021/12/12 00:52:20;;;;;;;60.35;29.83;;;4.10;99.90;;;;;;6180001;23;20023;-80
2021/12/12 00:54:48;;;;;;;55.63;29.27;;;4.10;99.90;;;;;;6176016;23;20028;-80
2021/12/12 00:57:23;;;;;;;60.83;28.42;;;4.10;99.90;;;;;;6176046;23;20036;-80
2021/12/12 00:59:49;;;;;;;58.88;27.63;;;4.10;99.90;;;;;;6201100;23;20012;-79
2021/12/12 01:02:21;;;;;;;56.40;28.60;;;4.10;99.90;;;;;;6178169;23;20016;-80
2021/12/12 01:04:52;;;;;;;58.67;28.88;;;4.10;99.90;;;;;;6200687;23;20251;-80
2021/12/12 01:14:54;;;;;;;60.53;28.05;;;4.10;99.90;;;;;;6228061;23;20079;-78
2021/12/12 01:17:40;;;;;;;56.47;27.77;;;4.10;99.90;;;;;;6203462;23;20068;-79
2021/12/12 01:20:14;;;;;;;59.17;28.75;;;4.20;99.90;;;;;;6228038;23;20088;-79
2021/12/12 01:22:59;;;;;;;66.32;29.45;;;4.20;99.90;;;;;;6203079;23;20095;-79
2021/12/12 01:25:32;;;;;;;;;;;4.20;99.90;;;;;;6227862;23;20020;-79
2021/12/12 01:28:06;;;;;;;56.90;27.60;;;4.20;99.90;;;;;;6202476;23;19912;-79
2021/12/12 01:30:32;;;;;;;55.67;27.88;;;4.20;99.90;;;;;;6176985;23;20017;-79
2021/12/12 01:32:59;;;;;;;54.40;27.50;;;4.30;99.90;;;;;;6178501;23;20100;-79
2021/12/12 01:35:26;;;;;;;58.63;29.20;;;4.30;99.90;;;;;;6177731;23;20040;-80
2021/12/12 01:40:52;;;;;;;56.55;27.70;;;4.30;99.90;;;;;;6229893;23;20040;-79
2021/12/12 01:43:36;;;;;;;57.00;27.98;;;4.30;99.90;;;;;;6203859;23;20013;-79
2021/12/12 01:46:06;;;;;;;55.83;26.23;;;4.30;99.90;;;;;;6204250;23;20044;-79
2021/12/12 01:48:38;;;;;;;52.72;27.27;;;4.40;99.90;;;;;;6204955;23;20091;-80
2021/12/12 01:51:07;;;;;;;57.65;26.83;;;4.40;99.90;;;;;;6204783;23;20020;-79
2021/12/12 01:53:37;;;;;;;61.70;28.02;;;4.40;99.90;;;;;;6205040;23;20020;-79
2021/12/12 01:56:22;;;;;;;55.65;26.85;;;4.50;99.90;;;;;;6204782;23;20016;-80
2021/12/12 01:58:54;;;;;;;56.65;26.45;;;4.50;99.90;;;;;;6204875;23;20009;-79
2021/12/12 02:01:29;;;;;;;60.58;26.83;;;4.50;99.90;;;;;;6203638;23;20013;-79
2021/12/12 02:04:04;;;;;;;60.70;26.45;;;4.50;99.90;;;;;;6204768;23;20095;-79
2021/12/12 02:06:30;;;;;;;52.83;25.80;;;4.60;99.90;;;;;;6205327;23;20021;-79
2021/12/12 02:08:58;;;;;;;57.50;26.95;;;4.60;99.90;;;;;;6180303;23;20016;-79
2021/12/12 02:11:30;;;;;;;57.60;24.77;;;4.60;99.90;;;;;;6205039;23;20020;-79
2021/12/12 02:13:59;;;;;;;58.88;24.65;;;4.60;99.90;;;;;;6205597;23;20023;-79
2021/12/12 02:16:28;;;;;;;62.42;25.95;;;4.60;99.90;;;;;;6204305;23;20064;-79
2021/12/12 02:18:57;;;;;;;58.10;25.70;;;4.60;99.90;;;;;;6204287;23;20023;-79
2021/12/12 02:21:34;;;;;;;63.30;27.08;;;4.60;99.90;;;;;;6205886;23;20017;-79
2021/12/12 02:35:31;;;;;;;66.57;29.33;;;4.60;99.90;;;;;;6210339;23;20017;-79
2021/12/12 02:37:58;;;;;;;68.32;28.88;;;4.60;99.90;;;;;;6231932;23;20349;-79
2021/12/12 02:40:33;;;;;;;62.65;27.85;;;4.60;99.90;;;;;;6208285;23;20013;-79
2021/12/12 02:43:00;;;;;;;67.18;27.85;;;4.70;99.90;;;;;;6206789;23;20012;-79
2021/12/12 02:45:29;;;;;;;66.72;29.35;;;4.70;99.90;;;;;;6205952;23;20013;-78
2021/12/12 02:48:05;;;;;;;68.80;30.15;;;4.70;99.90;;;;;;6207123;23;20016;-78
2021/12/12 02:50:40;;;;;;;64.75;28.02;;;4.70;99.90;;;;;;6231457;23;20047;-79
2021/12/12 02:53:09;;;;;;;;;;;4.70;99.90;;;;;;6207691;23;20084;-79
2021/12/12 02:55:49;;;;;;;58.55;27.52;;;4.70;99.90;;;;;;6206710;23;19916;-79
2021/12/12 02:58:20;;;;;;;62.22;27.83;;;4.70;99.90;;;;;;6206317;23;20016;-79
2021/12/12 03:01:01;;;;;;;62.05;29.13;;;4.70;99.90;;;;;;6205796;23;20007;-79
2021/12/12 03:03:29;;;;;;;62.58;31.08;;;4.80;99.90;;;;;;6206457;23;19996;-79
2021/12/12 03:05:55;;;;;;;66.88;29.92;;;4.80;99.90;;;;;;6205597;23;20007;-79
2021/12/12 03:08:21;;;;;;;63.58;29.45;;;4.80;99.90;;;;;;6204633;23;20036;-78
2021/12/12 03:10:52;;;;;;;64.70;29.07;;;4.80;99.90;;;;;;6180540;23;20067;-79
2021/12/12 03:13:19;;;;;;;70.97;30.27;;;4.80;99.90;;;;;;6180247;23;20040;-79
2021/12/12 03:15:47;;;;;;;62.13;28.60;;;4.80;99.90;;;;;;6204564;23;20001;-79
2021/12/12 03:18:17;;;;;;;55.75;28.10;;;4.80;99.90;;;;;;6203891;23;20055;-79
2021/12/12 03:20:48;;;;;;;60.42;28.55;;;4.80;99.90;;;;;;6203400;23;20016;-79
2021/12/12 03:23:21;;;;;;;57.63;28.60;;;4.80;99.90;;;;;;6203657;23;20009;-78
2021/12/12 03:25:53;;;;;;;52.00;27.08;;;4.90;99.90;;;;;;6203018;23;20036;-78
2021/12/12 03:28:23;;;;;;;52.70;27.65;;;4.90;99.90;;;;;;6202809;23;20013;-79
2021/12/12 03:30:52;;;;;;;52.78;27.08;;;4.90;99.90;;;;;;6178279;23;20023;-79
2021/12/12 03:33:19;;;;;;;55.38;27.95;;;4.80;99.90;;;;;;6200640;23;20021;-79
2021/12/12 03:35:50;;;;;;;44.67;24.65;;;4.90;99.90;;;;;;6176425;23;20080;-79
2021/12/12 03:38:27;;;;;;;50.15;25.35;;;4.90;99.90;;;;;;6201218;23;20545;-79
2021/12/12 03:40:57;;;;;;;48.22;25.55;;;4.90;99.90;;;;;;6201685;23;20066;-79
2021/12/12 03:43:23;;;;;;;55.92;26.35;;;4.90;99.90;;;;;;6202393;23;20073;-79
2021/12/12 03:45:56;;;;;;;50.73;24.77;;;4.90;99.90;;;;;;6203038;23;20016;-79
2021/12/12 03:48:31;;;;;;;47.53;25.98;;;4.90;99.90;;;;;;6203349;23;20055;-79
2021/12/12 03:51:01;;;;;;;49.95;25.08;;;4.90;99.90;;;;;;6202756;23;20020;-79
2021/12/12 03:53:29;;;;;;;58.67;26.20;;;4.90;99.90;;;;;;6177350;23;20147;-79
2021/12/12 03:55:55;;;;;;;55.65;25.83;;;5.00;99.90;;;;;;6201873;23;20390;-79
2021/12/12 03:58:29;;;;;;;43.75;24.70;;;4.90;99.90;;;;;;6201602;23;20045;-79
2021/12/12 04:01:02;;;;;;;42.70;23.70;;;4.90;99.90;;;;;;6201402;23;20019;-79
2021/12/12 04:03:54;;;;;;;46.17;24.02;;;4.90;99.90;;;;;;6226355;23;20140;-79
2021/12/12 04:06:24;;;;;;;43.65;22.55;;;4.90;99.90;;;;;;6201243;23;20023;-79
2021/12/12 04:08:51;;;;;;;44.60;22.85;;;4.90;99.90;;;;;;6200580;23;20047;-79
2021/12/12 04:11:22;;;;;;;39.53;22.45;;;4.90;99.90;;;;;;6200946;23;20020;-79
2021/12/12 04:13:51;;;;;;;41.72;23.45;;;5.00;99.90;;;;;;6200366;23;20020;-79
2021/12/12 04:16:55;;;;;;;38.55;21.38;;;5.00;99.90;;;;;;6200472;23;20016;-79
2021/12/12 04:19:23;;;;;;;37.05;21.92;;;5.00;99.90;;;;;;6225156;23;20013;-80
2021/12/12 04:21:49;;;;;;;34.88;20.88;;;5.00;99.90;;;;;;6199644;23;20013;-79
2021/12/12 04:24:29;;;;;;;36.28;19.95;;;5.10;99.90;;;;;;6199924;23;20035;-79
2021/12/12 04:27:04;;;;;;;34.47;18.95;;;5.10;99.90;;;;;;6200335;23;20035;-79
2021/12/12 04:29:33;;;;;;;30.83;18.45;;;5.20;99.90;;;;;;6199913;23;20024;-79
2021/12/12 04:32:03;;;;;;;33.10;18.73;;;5.20;99.90;;;;;;6198201;23;20013;-79
2021/12/12 04:34:40;;;;;;;30.38;17.92;;;5.30;99.90;;;;;;6197894;23;20138;-79
2021/12/12 04:37:12;;;;;;;32.67;18.83;;;5.30;99.90;;;;;;6200173;23;20146;-79
2021/12/12 04:39:43;;;;;;;30.52;16.92;;;5.30;99.90;;;;;;6200112;23;20015;-80
2021/12/12 04:42:13;;;;;;;30.23;17.55;;;5.40;99.90;;;;;;6199862;23;20441;-79
2021/12/12 04:44:48;;;;;;;24.45;16.73;;;5.30;99.90;;;;;;6200704;23;20046;-79
2021/12/12 04:50:49;;;;;;;26.70;16.80;;;5.50;99.90;;;;;;6224800;23;20024;-79
2021/12/12 04:53:33;;;;;;;30.23;16.83;;;5.50;99.90;;;;;;6200714;23;20024;-79
2021/12/12 04:56:30;;;;;;;24.00;15.93;;;5.50;99.90;;;;;;6225390;23;20024;-79
2021/12/12 04:59:57;;;;;;;25.17;16.38;;;5.50;99.90;;;;;;6223717;23;20016;-80
2021/12/12 05:02:56;;;;;;;26.45;17.02;;;5.60;99.90;;;;;;6165881;23;20020;-79
2021/12/12 05:05:31;;;;;;;24.27;16.73;;;5.50;99.90;;;;;;6182274;23;20442;-80
2021/12/12 05:08:14;;;;;;;28.27;18.23;;;5.60;99.90;;;;;;6200145;23;20444;-80
2021/12/12 05:11:04;;;;;;;31.17;18.75;;;5.60;99.90;;;;;;6227733;23;20017;-80
2021/12/12 05:13:49;;;;;;;30.17;19.45;;;5.60;99.90;;;;;;6226200;23;20037;-80
2021/12/12 05:16:24;;;;;;;30.15;18.70;;;5.60;99.90;;;;;;6225693;23;20016;-80
2021/12/12 05:19:13;;;;;;;35.47;20.25;;;5.60;99.90;;;;;;6200254;23;20051;-80
2021/12/12 05:22:11;;;;;;;34.72;19.50;;;5.60;99.90;;;;;;6204542;23;20110;-79
2021/12/12 05:32:09;;;;;;;33.72;19.65;;;5.60;99.90;;;;;;6225606;23;20043;-79
2021/12/12 05:37:26;;;;;;;45.10;22.55;;;5.50;99.90;;;;;;6202022;23;20047;-79
2021/12/12 05:47:29;;;;;;;41.20;22.70;;;5.50;99.90;;;;;;6224855;23;20024;-79
2021/12/12 05:50:19;;;;;;;48.88;23.63;;;5.60;99.90;;;;;;6225534;23;20016;-79
2021/12/12 05:56:40;;;;;;;46.83;23.35;;;5.60;99.90;;;;;;6225618;23;20114;-79
2021/12/12 05:59:27;;;;;;;54.85;24.52;;;5.60;99.90;;;;;;6200846;23;20020;-79
2021/12/12 06:02:05;;;;;;;51.05;23.92;;;5.60;99.90;;;;;;6178864;23;20017;-80
2021/12/12 06:07:40;;;;;;;59.78;25.67;;;5.60;99.90;;;;;;6219139;23;20024;-79
2021/12/12 06:11:01;;;;;;;55.42;25.20;;;5.60;99.90;;;;;;6252468;23;20050;-79
2021/12/12 06:28:26;;;;;;;61.42;26.83;;;5.60;99.90;;;;;;6255516;23;20066;-79
2021/12/12 06:32:11;;;;;;;;;;;5.60;99.90;;;;;;6239687;23;20027;-79
2021/12/12 06:35:14;;;;;;;63.22;27.35;;;5.60;99.90;;;;;;6140376;23;20420;-79
2021/12/12 06:38:40;;;;;;;69.57;27.48;;;5.60;99.90;;;;;;6117042;23;20157;-79
2021/12/12 06:45:49;;;;;;;66.90;27.15;;;5.60;99.90;;;;;;6021480;23;20018;-79
2021/12/12 06:52:05;;;;;;;79.57;29.42;;;5.60;99.90;;;;;;6165207;23;20017;-79
2021/12/12 06:59:03;;;;;;;87.40;30.58;;;5.70;99.90;;;;;;6126614;23;20013;-79
2021/12/12 07:01:56;;;;;;;92.72;31.17;;;5.70;99.90;;;;;;6166118;23;20024;-79
2021/12/12 07:15:51;;;;;;;110.30;32.33;;;5.80;99.90;;;;;;6229079;23;20035;-79
2021/12/12 07:18:32;;;;;;;113.85;34.08;;;5.80;99.90;;;;;;6192057;23;20016;-79
2021/12/12 07:28:44;;;;;;;118.28;36.97;;;5.80;99.90;;;;;;6260971;23;20065;-79
2021/12/12 07:36:18;;;;;;;126.78;35.58;;;5.90;99.90;;;;;;6260326;23;20023;-79
2021/12/12 07:43:27;;;;;;;119.18;34.50;;;5.90;99.90;;;;;;6252221;23;20058;-79
2021/12/12 07:54:05;;;;;;;110.40;33.10;;;6.00;99.90;;;;;;6259500;23;20083;-79
2021/12/12 07:57:36;;;;;;;111.75;33.55;;;6.00;99.90;;;;;;6259022;23;20073;-79
2021/12/12 08:08:30;;;;;;;140.27;38.38;;;6.10;99.90;;;;;;6259407;23;20066;-79
2021/12/12 08:12:14;;;;;;;139.00;36.58;;;6.10;99.90;;;;;;6257990;23;20027;-79
2021/12/12 08:22:53;;;;;;;134.25;36.65;;;6.20;99.90;;;;;;6227789;23;20020;-79
2021/12/12 08:26:38;;;;;;;146.70;37.67;;;6.20;99.90;;;;;;6202432;23;20040;-79
2021/12/12 08:36:52;;;;;;;178.23;41.33;;;6.20;99.90;;;;;;6224542;23;20031;-79
2021/12/12 08:39:48;;;;;;;198.63;43.17;;;6.30;99.90;;;;;;6226757;23;20074;-79
2021/12/12 08:57:52;;;;;;;222.35;45.85;;;6.40;99.90;;;;;;6205920;23;20032;-79
2021/12/12 09:34:11;;;;;;;234.45;48.70;;;6.60;99.90;;;;;;6257809;23;20104;-79
2021/12/12 09:55:09;;;;;;;202.68;42.50;;;6.90;99.90;;;;;;6259333;23;20043;-78
2021/12/12 09:58:11;;;;;;;206.60;43.45;;;7.00;99.90;;;;;;6207480;23;20020;-79
2021/12/12 10:05:19;;;;;;;196.32;41.97;;;7.10;99.90;;;;;;6227643;23;20027;-78
2021/12/12 10:15:40;;;;;;;169.93;38.47;;;7.30;99.90;;;;;;6225644;23;20023;-78
2021/12/12 10:19:02;;;;;;;187.93;39.85;;;7.40;99.90;;;;;;6225586;23;20041;-78
2021/12/12 10:22:02;;;;;;;167.35;39.08;;;7.50;99.90;;;;;;6227084;23;20004;-78
2021/12/12 10:32:10;;;;;;;200.80;41.10;;;7.60;99.90;;;;;;6168431;23;20083;-78
2021/12/12 10:35:32;;;;;;;170.02;37.88;;;7.70;99.90;;;;;;6196893;23;20031;-78
2021/12/12 10:39:10;;;;;;;172.98;37.88;;;7.60;99.90;;;;;;6195461;23;20028;-78
2021/12/12 10:42:45;;;;;;;174.60;37.90;;;7.60;99.90;;;;;;6196795;23;20071;-78
2021/12/12 10:57:33;;;;;;;152.00;34.22;;;7.70;99.90;;;;;;6196333;23;20076;-78
2021/12/12 11:39:50;;;;;;;141.45;33.33;;;8.10;99.90;;;;;;6249272;22;20044;-80
2021/12/12 11:43:13;;;;;;;169.38;34.80;;;8.10;99.90;;;;;;6235215;23;20120;-80
2021/12/12 12:00:18;;;;;;;155.15;34.38;;;8.10;99.90;;;;;;6230437;23;20027;-80
2021/12/12 12:03:32;;;;;;;147.25;32.92;;;8.20;99.90;;;;;;6205712;23;20446;-80
2021/12/12 12:06:59;;;;;;;167.60;34.13;;;8.20;99.90;;;;;;6232241;23;20018;-80
2021/12/12 12:20:58;;;;;;;144.35;30.70;;;8.40;99.90;;;;;;6211112;23;20025;-80
2021/12/12 12:24:37;;;;;;;124.05;29.35;;;8.40;99.90;;;;;;6214775;23;20019;-80
2021/12/12 12:28:00;;;;;;;108.63;25.45;;;8.50;99.90;;;;;;6214398;23;20015;-80
2021/12/12 12:31:00;;;;;;;86.38;25.38;;;8.60;99.90;;;;;;6214708;23;20019;-80
2021/12/12 12:34:32;;;;;;;88.78;23.67;;;8.70;99.90;;;;;;6234899;23;20039;-80
2021/12/12 12:37:55;;;;;;;104.43;25.52;;;8.80;99.90;;;;;;6236310;23;20039;-80
2021/12/12 12:41:37;;;;;;;117.82;26.95;;;8.80;99.90;;;;;;6218055;23;20456;-80
2021/12/12 12:44:45;;;;;;;129.73;28.17;;;8.80;99.90;;;;;;6173057;23;20023;-79
2021/12/12 12:48:24;;;;;;;114.90;26.30;;;8.90;99.90;;;;;;6189454;23;20019;-80
2021/12/12 12:51:21;;;;;;;109.10;24.45;;;8.80;99.90;;;;;;6188846;23;20020;-80
2021/12/12 12:53:58;;;;;;;130.98;26.45;;;8.80;99.90;;;;;;6190572;23;20457;-80
2021/12/12 12:56:51;;;;;;;120.57;26.67;;;8.80;99.90;;;;;;6217173;23;20013;-80
2021/12/12 12:59:38;;;;;;;126.78;24.95;;;8.90;99.90;;;;;;6216427;23;20016;-81
2021/12/12 13:02:21;;;;;;;159.45;29.50;;;8.90;99.90;;;;;;6191549;23;20078;-81
2021/12/12 13:04:59;;;;;;;138.68;27.23;;;8.90;99.90;;;;;;6216239;23;20047;-80
2021/12/12 13:07:40;;;;;;;129.10;26.52;;;8.90;99.90;;;;;;6189963;23;20020;-80
2021/12/12 13:10:15;;;;;;;149.93;27.15;;;8.90;99.90;;;;;;6176346;23;20021;-80
2021/12/12 13:13:02;;;;;;;120.60;23.90;;;8.90;99.90;;;;;;6176483;23;20466;-80
2021/12/12 13:15:43;;;;;;;112.35;22.40;;;8.90;99.90;;;;;;6189338;23;20027;-80
2021/12/12 13:18:49;;;;;;;150.73;25.52;;;9.00;99.90;;;;;;6212754;23;20017;-81
2021/12/12 13:21:42;;;;;;;139.32;25.17;;;9.00;99.90;;;;;;6190638;23;20400;-81
2021/12/12 13:24:29;;;;;;;191.88;29.42;;;9.00;99.90;;;;;;6190101;23;20055;-81
2021/12/12 13:27:27;;;;;;;140.43;24.67;;;9.00;99.90;;;;;;6190581;23;20023;-81
2021/12/12 13:30:13;;;;;;;113.10;21.63;;;9.00;99.90;;;;;;6188690;23;20013;-81
2021/12/12 13:32:53;;;;;;;143.00;23.67;;;9.00;99.90;;;;;;6187714;23;20266;-80
2021/12/12 13:35:25;;;;;;;78.85;18.02;;;9.00;99.90;;;;;;6189181;23;20537;-80
2021/12/12 13:37:54;;;;;;;60.10;15.77;;;9.10;99.90;;;;;;6188824;23;20050;-80
2021/12/12 13:40:42;;;;;;;42.30;12.98;;;9.20;99.90;;;;;;6190752;23;20340;-80
2021/12/12 13:43:12;;;;;;;48.90;14.07;;;9.30;99.90;;;;;;6190737;23;20023;-80
2021/12/12 13:45:49;;;;;;;51.30;13.48;;;9.40;99.90;;;;;;6190333;23;20312;-80
2021/12/12 13:48:20;;;;;;;51.60;13.90;;;9.50;99.90;;;;;;6191125;23;20043;-80
2021/12/12 13:51:16;;;;;;;47.80;13.45;;;9.50;99.90;;;;;;6216418;23;20394;-80
2021/12/12 13:54:00;;;;;;;51.55;13.77;;;9.50;99.90;;;;;;6148287;23;20042;-79
2021/12/12 13:56:37;;;;;;;44.13;13.03;;;9.60;99.90;;;;;;6191112;23;20019;-79
2021/12/12 13:59:36;;;;;;;41.20;11.97;;;9.60;99.90;;;;;;6190757;23;20246;-79
2021/12/12 14:02:05;;;;;;;40.87;12.30;;;9.60;99.90;;;;;;6156761;23;20959;-79
2021/12/12 14:05:03;;;;;;;42.70;11.67;;;9.60;99.90;;;;;;6214447;23;20251;-79
2021/12/12 14:07:51;;;;;;;36.70;11.20;;;9.70;99.90;;;;;;6159848;23;20251;-79
2021/12/12 14:10:29;;;;;;;33.80;11.07;;;9.70;99.90;;;;;;6203901;23;20251;-79
2021/12/12 14:13:03;;;;;;;32.67;10.07;;;9.70;99.90;;;;;;6217865;23;20746;-79
2021/12/12 14:15:33;;;;;;;29.52;9.95;;;9.70;99.90;;;;;;6219269;23;20294;-79
2021/12/12 14:18:01;;;;;;;32.10;10.30;;;9.70;99.90;;;;;;6215583;23;20012;-79
2021/12/12 14:20:32;;;;;;;33.33;10.30;;;9.70;99.90;;;;;;6192550;23;20266;-79
2021/12/12 14:23:00;;;;;;;30.47;11.17;;;9.70;99.90;;;;;;6193277;23;20047;-79
2021/12/12 14:25:28;;;;;;;37.77;11.83;;;9.60;99.90;;;;;;6188832;23;20251;-79
2021/12/12 14:27:57;;;;;;;37.00;11.37;;;9.70;99.90;;;;;;6188997;23;20338;-79
2021/12/12 14:30:28;;;;;;;33.53;11.23;;;9.70;99.90;;;;;;6187401;23;20479;-79
2021/12/12 14:33:03;;;;;;;32.33;10.47;;;9.70;99.90;;;;;;6190228;23;20255;-79
2021/12/12 14:35:44;;;;;;;31.65;10.95;;;9.80;99.90;;;;;;6191029;23;20297;-79
2021/12/12 14:38:13;;;;;;;37.47;12.25;;;9.80;99.90;;;;;;6189754;23;20492;-79
2021/12/12 14:41:03;;;;;;;42.47;13.17;;;9.80;99.90;;;;;;6190116;23;20019;-79
2021/12/12 14:43:45;;;;;;;50.40;13.97;;;9.80;99.90;;;;;;6214375;23;20716;-79
2021/12/12 14:46:18;;;;;;;59.83;15.43;;;9.70;99.90;;;;;;6194090;23;20251;-79
2021/12/12 14:48:57;;;;;;;421.33;115.67;;;9.70;99.90;;;;;;6193958;23;20250;-79
2021/12/12 14:51:34;;;;;;;198.90;50.00;;;9.80;99.90;;;;;;6220144;23;20242;-79
2021/12/12 14:54:10;;;;;;;68.43;20.13;;;9.70;99.90;;;;;;6219256;23;20262;-80
2021/12/12 14:56:39;;;;;;;51.53;15.27;;;9.70;99.90;;;;;;6218258;23;20309;-80
2021/12/12 14:59:11;;;;;;;57.50;14.90;;;9.70;99.90;;;;;;6220067;23;20565;-80
2021/12/12 15:02:22;;;;;;;52.87;14.83;;;9.70;99.90;;;;;;6221250;23;20250;-80
2021/12/12 15:04:57;;;;;;;67.90;17.25;;;9.70;99.90;;;;;;6219756;23;20253;-80
2021/12/12 15:07:24;;;;;;;72.25;16.48;;;9.70;99.90;;;;;;6217667;23;20772;-80
2021/12/12 15:09:57;;;;;;;58.33;15.75;;;9.70;99.90;;;;;;6217000;23;20376;-79
2021/12/12 15:12:30;;;;;;;56.20;16.50;;;9.70;99.90;;;;;;6217740;23;20056;-80
2021/12/12 15:15:01;;;;;;;65.45;15.75;;;9.70;99.90;;;;;;6217634;23;20444;-80
2021/12/12 15:17:29;;;;;;;64.73;17.27;;;9.70;99.90;;;;;;6194575;23;20012;-80
2021/12/12 15:20:01;;;;;;;58.90;15.93;;;9.70;99.90;;;;;;6219175;23;20238;-79
2021/12/12 15:22:45;;;;;;;60.75;15.30;;;9.70;99.90;;;;;;6218604;23;20243;-79
2021/12/12 15:25:15;;;;;;;65.53;16.45;;;9.70;99.90;;;;;;6218063;23;20016;-79
2021/12/12 15:27:44;;;;;;;61.53;16.15;;;9.70;99.90;;;;;;6218481;23;20365;-79
2021/12/12 15:30:21;;;;;;;56.42;15.20;;;9.60;99.90;;;;;;6218716;23;20020;-79
2021/12/12 15:33:06;;;;;;;60.00;15.20;;;9.60;99.90;;;;;;6218779;23;20012;-79
2021/12/12 15:35:36;;;;;;;69.05;18.17;;;9.60;99.90;;;;;;6217691;23;20326;-79
2021/12/12 15:38:09;;;;;;;76.37;18.63;;;9.60;99.90;;;;;;6218686;23;20031;-79
2021/12/12 15:40:39;;;;;;;70.47;18.43;;;9.60;99.90;;;;;;6218150;23;20243;-79
2021/12/12 15:43:10;;;;;;;84.40;19.43;;;9.60;99.90;;;;;;6217864;23;20815;-79
2021/12/12 15:45:44;;;;;;;56.93;16.83;;;9.60;99.90;;;;;;6215382;23;21013;-79
2021/12/12 15:48:18;;;;;;;70.57;17.73;;;9.60;99.90;;;;;;6188397;23;20257;-79
2021/12/12 15:50:47;;;;;;;73.10;17.83;;;9.60;99.90;;;;;;6188559;23;20583;-79
2021/12/12 15:53:23;;;;;;;75.38;18.63;;;9.70;99.90;;;;;;6168985;23;20016;-79
2021/12/12 15:55:57;;;;;;;78.68;18.75;;;9.70;99.90;;;;;;6186669;23;20013;-79
2021/12/12 15:58:52;;;;;;;73.53;19.17;;;9.70;99.90;;;;;;6217444;23;20024;-79
2021/12/12 16:01:26;;;;;;;92.00;19.75;;;9.60;99.90;;;;;;6190519;23;20569;-79
2021/12/12 16:03:56;;;;;;;78.60;19.60;;;9.60;99.90;;;;;;6214224;23;21187;-79
2021/12/12 16:06:32;;;;;;;73.88;18.75;;;9.60;99.90;;;;;;6217754;23;20271;-79
2021/12/12 16:09:02;;;;;;;103.18;20.92;;;9.50;99.90;;;;;;6212396;23;20099;-80
2021/12/12 16:11:29;;;;;;;95.32;20.35;;;9.50;99.90;;;;;;6186289;23;20021;-80
2021/12/12 16:14:05;;;;;;;87.70;19.27;;;9.50;99.90;;;;;;6189461;23;20099;-80
2021/12/12 16:16:43;;;;;;;111.10;21.10;;;9.40;99.90;;;;;;6193365;23;20321;-79
2021/12/12 16:19:12;;;;;;;73.60;17.08;;;9.40;99.90;;;;;;6191482;23;20454;-79
2021/12/12 16:21:46;;;;;;;71.78;18.65;;;9.40;99.90;;;;;;6192630;23;20087;-79
2021/12/12 16:24:14;;;;;;;75.35;18.15;;;9.40;99.90;;;;;;6192482;23;20446;-79
2021/12/12 16:26:46;;;;;;;73.27;17.70;;;9.40;99.90;;;;;;6190525;23;20021;-79
2021/12/12 16:29:18;;;;;;;63.33;15.87;;;9.40;99.90;;;;;;6189674;23;20244;-79
2021/12/12 16:31:47;;;;;;;76.13;16.60;;;9.40;99.90;;;;;;6187793;23;20276;-79
2021/12/12 16:34:18;;;;;;;63.15;16.08;;;9.50;99.90;;;;;;6214815;23;20059;-79
2021/12/12 16:37:08;;;;;;;51.17;13.30;;;9.50;99.90;;;;;;6189779;23;20063;-79
2021/12/12 16:39:47;;;;;;;60.78;14.38;;;9.50;99.90;;;;;;6187869;23;20012;-79
2021/12/12 16:42:25;;;;;;;51.40;12.98;;;9.60;99.90;;;;;;6187163;23;20027;-79
2021/12/12 16:45:15;;;;;;;59.80;14.25;;;9.60;99.90;;;;;;6186204;23;20031;-79
2021/12/12 16:47:44;;;;;;;59.60;13.27;;;9.60;99.90;;;;;;6211219;23;20049;-79
2021/12/12 16:50:19;;;;;;;47.05;12.52;;;9.60;99.90;;;;;;6186792;23;20023;-79
2021/12/12 16:52:47;;;;;;;45.75;12.32;;;9.60;99.90;;;;;;6188390;23;20013;-79
2021/12/12 16:55:29;;;;;;;40.40;12.05;;;9.70;99.90;;;;;;6188673;23;20059;-79
2021/12/12 16:58:08;;;;;;;25.93;9.40;;;9.70;99.90;;;;;;6213650;23;20386;-79
2021/12/12 17:00:45;;;;;;;32.20;10.18;;;9.70;99.90;;;;;;6188144;23;20247;-79
2021/12/12 17:03:18;;;;;;;43.23;11.10;;;9.70;99.90;;;;;;6187583;23;20016;-79
2021/12/12 17:05:48;;;;;;;48.97;11.20;;;9.70;99.90;;;;;;6214189;23;20244;-79
2021/12/12 17:08:36;;;;;;;47.20;12.07;;;9.80;99.90;;;;;;6190277;23;20342;-80
2021/12/12 17:11:03;;;;;;;42.70;10.33;;;9.80;99.90;;;;;;6168420;23;20323;-80
2021/12/12 17:13:36;;;;;;;36.35;9.65;;;9.80;99.90;;;;;;6166699;23;20577;-80
2021/12/12 17:16:03;;;;;;;34.25;9.32;;;9.70;99.90;;;;;;6189356;23;20013;-80
2021/12/12 17:18:33;;;;;;;28.80;7.90;;;9.70;99.90;;;;;;6164780;23;20070;-80
2021/12/12 17:21:13;;;;;;;40.33;9.13;;;9.70;99.90;;;;;;6213438;23;20331;-80
2021/12/12 17:23:42;;;;;;;30.53;8.23;;;9.70;99.90;;;;;;6187655;23;20534;-80
2021/12/12 17:26:10;;;;;;;32.73;8.63;;;9.60;99.90;;;;;;6211820;23;20244;-80
2021/12/12 17:28:37;;;;;;;30.50;8.73;;;9.60;99.90;;;;;;6187254;23;20657;-80
2021/12/12 17:31:13;;;;;;;34.87;9.30;;;9.60;99.90;;;;;;6162709;23;20745;-80
2021/12/12 17:34:16;;;;;;;38.35;9.32;;;9.60;99.90;;;;;;6160275;23;20628;-80
2021/12/12 17:36:45;;;;;;;37.43;9.83;;;9.60;99.90;;;;;;6140104;23;20442;-80
2021/12/12 17:39:12;;;;;;;39.40;10.23;;;9.60;99.90;;;;;;6187602;23;20698;-80
2021/12/12 17:41:38;;;;;;;43.17;10.32;;;9.50;99.90;;;;;;6213723;23;20262;-80
2021/12/12 17:44:18;;;;;;;50.47;10.80;;;9.60;99.90;;;;;;6195047;23;20028;-80
2021/12/12 17:47:03;;;;;;;52.00;12.17;;;9.60;99.90;;;;;;6247320;23;20035;-81
2021/12/12 17:49:36;;;;;;;42.28;10.65;;;9.60;99.90;;;;;;6195762;23;20836;-81
2021/12/12 17:52:20;;;;;;;57.33;12.60;;;9.60;99.90;;;;;;6221310;23;20061;-81
2021/12/12 17:55:15;;;;;;;60.53;13.07;;;9.50;99.90;;;;;;6199083;23;20412;-81
2021/12/12 17:57:50;;;;;;;73.53;13.75;;;9.50;99.90;;;;;;6167389;23;20247;-80
2021/12/12 18:00:26;;;;;;;60.63;12.88;;;9.60;99.90;;;;;;6153283;23;20023;-80
2021/12/12 18:02:58;;;;;;;67.07;13.18;;;9.50;99.90;;;;;;6198861;23;20023;-80
2021/12/12 18:05:36;;;;;;;73.00;14.27;;;9.50;99.90;;;;;;6223903;23;20020;-80
2021/12/12 18:08:20;;;;;;;74.63;15.10;;;9.50;99.90;;;;;;6224164;22;20249;-80
2021/12/12 18:10:56;;;;;;;71.70;15.07;;;9.50;99.90;;;;;;6197613;23;20243;-80
2021/12/12 18:13:30;;;;;;;83.23;15.60;;;9.50;99.90;;;;;;6217907;23;20073;-80
2021/12/12 18:16:02;;;;;;;75.47;14.23;;;9.50;99.90;;;;;;6223224;23;20243;-80
2021/12/12 18:19:04;;;;;;;76.30;14.32;;;9.50;99.90;;;;;;6197198;23;20008;-80
2021/12/12 18:21:36;;;;;;;69.20;13.93;;;9.50;99.90;;;;;;6222456;23;20012;-80
2021/12/12 18:24:14;;;;;;;72.63;14.43;;;9.50;99.90;;;;;;6197917;23;20245;-80
2021/12/12 18:27:02;;;;;;;64.57;14.17;;;9.50;99.90;;;;;;6222434;23;20308;-80
2021/12/12 18:29:34;;;;;;;73.68;13.57;;;9.60;99.90;;;;;;6193131;23;20250;-79
2021/12/12 18:32:00;;;;;;;71.50;13.60;;;9.50;99.90;;;;;;6218539;23;20069;-79
2021/12/12 18:34:58;;;;;;;68.50;14.10;;;9.50;99.90;;;;;;6218895;23;20081;-79
2021/12/12 18:37:28;;;;;;;61.15;12.98;;;9.60;99.90;;;;;;6193220;23;20633;-79
2021/12/12 18:39:57;;;;;;;58.40;13.73;;;9.50;99.90;;;;;;6195488;23;20459;-79
2021/12/12 18:42:32;;;;;;;61.97;13.35;;;9.50;99.90;;;;;;6218497;23;20012;-79
2021/12/12 18:45:20;;;;;;;65.13;13.68;;;9.50;99.90;;;;;;6219210;23;20019;-80
2021/12/12 18:47:55;;;;;;;58.03;13.13;;;9.50;99.90;;;;;;6218965;23;20412;-80
2021/12/12 18:50:36;;;;;;;50.83;13.30;;;9.50;99.90;;;;;;6220029;23;20019;-80
2021/12/12 18:53:33;;;;;;;68.07;14.93;;;9.60;99.90;;;;;;6194750;23;20356;-80
2021/12/12 18:56:03;;;;;;;73.57;16.67;;;9.50;99.90;;;;;;6193538;23;20020;-80
2021/12/12 18:58:33;;;;;;;93.78;18.00;;;9.50;99.90;;;;;;6217594;23;20436;-80
2021/12/12 19:01:22;;;;;;;89.90;18.83;;;9.50;99.90;;;;;;6192799;23;20035;-80
2021/12/12 19:03:53;;;;;;;76.28;17.83;;;9.50;99.90;;;;;;6192964;23;20016;-80
2021/12/12 19:06:32;;;;;;;98.10;20.08;;;9.50;99.90;;;;;;6217722;23;20046;-79
2021/12/12 19:08:58;;;;;;;113.57;22.27;;;9.60;99.90;;;;;;6215530;23;20559;-79
2021/12/12 19:11:29;;;;;;;98.70;22.27;;;9.60;99.90;;;;;;6191529;23;20266;-79
2021/12/12 19:13:59;;;;;;;112.35;23.15;;;9.60;99.90;;;;;;6218000;23;20365;-79